Time;durP1;ratioP1;P1;durP2;ratioP2;P2;SDS_P1;SDS_P2;PMS_P1;PMS_P2;Temp;Humidity;BMP_temperature;BMP_pressure;BME280_temperature;BME280_humidity;BME280_pressure;Samples;Min_cycle;Max_cycle;Signal;HPM_P1;HPM_P2
2023/07/15 00:16:11;;;;;;;5.60;3.70;;;;;;;18.24;56.80;98602.54;435004;1251;382993;-41
2023/07/15 00:26:19;;;;;;;6.80;4.10;;;;;;;18.12;57.39;98596.13;435242;1254;107307;-41
2023/07/15 00:36:28;;;;;;;5.10;4.10;;;;;;;18.04;57.79;98590.91;435354;1254;98328;-41
2023/07/15 00:46:59;;;;;;;5.20;4.00;;;;;;;17.98;58.21;98583.40;435213;1251;111556;-41
2023/07/15 00:57:09;;;;;;;6.90;4.70;;;;;;;17.87;58.60;98579.95;435331;1255;107615;-42
2023/07/15 01:07:16;;;;;;;11.70;5.80;;;;;;;17.95;59.21;98573.46;435508;1251;99104;-41
2023/07/15 01:17:24;;;;;;;7.90;5.20;;;;;;;18.07;59.31;98566.27;436224;1254;108098;-41
2023/07/15 01:27:31;;;;;;;11.30;6.30;;;;;;;18.04;59.54;98561.47;435403;1255;98107;-41
2023/07/15 01:37:38;;;;;;;8.70;5.60;;;;;;;17.86;60.18;98556.58;435343;1257;111621;-40
2023/07/15 01:47:45;;;;;;;11.20;6.30;;;;;;;17.71;60.59;98553.02;435206;1251;107832;-42
2023/07/15 01:57:52;;;;;;;8.80;5.80;;;;;;;17.55;61.27;98548.73;435393;1251;99247;-43
2023/07/15 02:08:00;;;;;;;10.40;6.80;;;;;;;17.44;61.85;98542.10;435406;1258;108735;-43
2023/07/15 02:18:07;;;;;;;7.20;5.90;;;;;;;17.34;62.63;98539.38;435234;1251;98451;-43
2023/07/15 02:28:14;;;;;;;8.80;7.40;;;;;;;17.14;63.08;98544.34;435308;1257;111968;-43
2023/07/15 02:38:21;;;;;;;9.90;6.10;;;;;;;16.98;63.57;98549.68;435214;1255;107378;-40
2023/07/15 02:48:28;;;;;;;10.40;6.10;;;;;;;16.86;63.97;98552.20;435204;1257;99265;-42
2023/07/15 02:58:35;;;;;;;12.10;8.00;;;;;;;16.76;64.40;98554.41;435281;1258;109390;-42
2023/07/15 03:08:44;;;;;;;11.40;7.20;;;;;;;16.58;65.14;98561.80;435271;1253;99231;-42
2023/07/15 03:18:51;;;;;;;18.30;8.00;;;;;;;16.59;65.70;98563.34;435294;1257;111412;-42
2023/07/15 03:39:06;;;;;;;11.80;7.20;;;;;;;18.22;65.07;98567.09;435217;1257;99231;-42
2023/07/15 03:49:12;;;;;;;10.50;7.70;;;;;;;19.01;64.17;98552.82;435312;1256;107738;-43
2023/07/15 03:59:19;;;;;;;13.80;7.20;;;;;;;18.63;64.06;98552.64;435270;1251;99231;-43
2023/07/15 04:09:26;;;;;;;15.50;8.20;;;;;;;18.80;63.89;98559.77;435476;1251;111435;-42
2023/07/15 04:19:34;;;;;;;12.60;7.90;;;;;;;20.11;63.09;98553.59;435285;1255;108168;-45
2023/07/15 04:29:41;;;;;;;12.20;7.70;;;;;;;21.57;61.52;98554.30;435329;1251;99329;-41
2023/07/15 04:39:48;;;;;;;11.50;7.60;;;;;;;22.28;59.99;98560.06;435343;1255;109721;-44
2023/07/15 04:49:55;;;;;;;9.20;6.90;;;;;;;22.95;58.59;98570.95;435410;1251;98836;-43
2023/07/15 05:00:04;;;;;;;10.40;7.00;;;;;;;23.38;57.49;98571.77;435276;1255;111929;-42
2023/07/15 05:40:29;;;;;;;7.20;5.60;;;;;;;24.79;53.57;98578.91;435269;1251;97997;-41
2023/07/15 05:50:37;;;;;;;9.60;5.70;;;;;;;25.19;52.75;98572.32;435357;1251;111574;-41
2023/07/15 06:00:44;;;;;;;11.80;4.80;;;;;;;25.82;52.43;98569.80;435287;1251;108466;-41
2023/07/15 06:10:50;;;;;;;7.90;5.10;;;;;;;26.11;51.13;98571.39;435420;1253;98101;-42
2023/07/15 06:20:57;;;;;;;7.40;4.70;;;;;;;26.67;51.02;98575.36;435401;1254;107924;-41
2023/07/15 06:41:08;;;;;;;4.60;4.00;;;;;;;28.06;49.15;98582.27;435254;1251;110800;-42
2023/07/15 06:51:15;;;;;;;6.10;3.60;;;;;;;28.55;48.02;98586.89;435087;1251;108371;-42
2023/07/15 07:01:23;;;;;;;6.20;3.70;;;;;;;28.46;46.69;98581.23;435213;1257;99266;-43
2023/07/15 07:11:30;;;;;;;6.20;3.30;;;;;;;28.66;46.20;98575.22;435221;1254;108204;-43
2023/07/15 07:21:38;;;;;;;5.60;3.90;;;;;;;28.82;45.71;98570.10;435350;1251;99189;-43
2023/07/15 07:31:45;;;;;;;5.90;3.40;;;;;;;29.40;45.17;98566.34;435277;1254;111753;-44
2023/07/15 07:41:54;;;;;;;3.20;2.90;;;;;;;30.02;44.83;98562.21;435262;1254;108485;-41
2023/07/15 08:02:09;;;;;;;3.20;2.80;;;;;;;30.72;43.84;98562.02;435359;1254;100787;-43
2023/07/15 08:12:18;;;;;;;4.40;3.20;;;;;;;31.06;42.81;98562.05;435256;1254;99215;-41
2023/07/15 08:22:23;;;;;;;3.50;3.00;;;;;;;30.69;41.54;98557.47;435302;1256;111434;-42
2023/07/15 08:32:30;;;;;;;3.50;3.20;;;;;;;30.10;41.44;98564.86;435393;1254;108138;-42
2023/07/15 08:42:38;;;;;;;3.60;3.30;;;;;;;30.01;41.77;98556.36;435332;1254;99138;-41
2023/07/15 08:52:46;;;;;;;8.10;3.70;;;;;;;30.26;41.89;98554.05;435287;1256;109382;-42
2023/07/15 09:02:53;;;;;;;5.30;3.40;;;;;;;30.68;41.41;98548.34;435392;1251;98062;-42
2023/07/15 09:13:02;;;;;;;6.90;3.20;;;;;;;30.52;41.21;98546.95;435423;1254;111341;-41
2023/07/15 09:23:11;;;;;;;4.70;3.20;;;;;;;30.59;40.73;98542.08;435260;1256;107788;-43
2023/07/15 09:33:33;;;;;;;5.10;2.80;;;;;;;30.48;40.98;98536.90;435483;1253;99208;-42
2023/07/15 09:43:49;;;;;;;3.80;2.90;;;;;;;30.77;40.55;98530.09;435222;1256;106755;-42
2023/07/15 09:53:56;;;;;;;4.50;3.80;;;;;;;30.57;39.65;98523.89;435171;1254;99223;-43
2023/07/15 10:14:11;;;;;;;6.20;2.90;;;;;;;30.81;39.43;98519.86;435261;1257;106828;-41
2023/07/15 10:24:17;;;;;;;3.50;3.20;;;;;;;30.91;39.23;98522.73;435346;1257;99234;-43
2023/07/15 10:34:35;;;;;;;;;;;;;;;31.02;39.17;98519.08;435325;1255;108023;-42
2023/07/15 10:44:41;;;;;;;4.00;3.10;;;;;;;30.97;38.06;98513.55;435401;1257;99241;-43
2023/07/15 10:54:48;;;;;;;3.50;3.20;;;;;;;31.01;38.79;98511.50;435432;1254;110917;-43
2023/07/15 11:15:02;;;;;;;3.20;2.90;;;;;;;31.23;38.06;98498.86;435275;1254;99285;-42
2023/07/15 11:45:22;;;;;;;4.50;3.00;;;;;;;30.98;37.34;98476.50;435231;1254;112423;-41
2023/07/15 11:55:28;;;;;;;4.30;2.90;;;;;;;31.11;37.31;98468.41;435464;1257;99291;-42
2023/07/15 12:05:39;;;;;;;3.60;2.80;;;;;;;31.57;37.59;98459.73;435312;1251;99362;-42
2023/07/15 12:35:55;;;;;;;4.10;2.80;;;;;;;31.56;35.54;98444.27;435388;1255;104146;-43
2023/07/15 12:46:02;;;;;;;4.10;2.30;;;;;;;31.46;35.74;98431.42;435235;1256;100692;-42
2023/07/15 13:16:21;;;;;;;2.90;2.60;;;;;;;32.08;35.41;98408.73;435341;1251;99217;-42
2023/07/15 13:26:29;;;;;;;6.40;2.90;;;;;;;31.93;35.07;98420.22;435326;1256;111988;-42
2023/07/15 13:36:36;;;;;;;4.90;2.40;;;;;;;32.03;35.39;98412.52;435282;1256;107527;-43
2023/07/15 13:46:43;;;;;;;5.70;2.30;;;;;;;31.84;35.09;98411.08;435391;1251;98043;-44
2023/07/15 14:06:57;;;;;;;2.50;2.30;;;;;;;31.90;35.59;98394.64;435312;1251;97986;-42
2023/07/15 14:17:04;;;;;;;3.30;2.60;;;;;;;31.88;35.48;98388.70;435387;1255;103507;-42
2023/07/15 14:37:17;;;;;;;3.70;2.50;;;;;;;31.95;35.79;98374.31;435271;1251;99260;-41
2023/07/15 14:47:24;;;;;;;2.70;2.50;;;;;;;32.01;35.36;98363.50;435299;1257;99895;-41
2023/07/15 14:57:31;;;;;;;4.30;2.20;;;;;;;32.04;35.19;98355.86;435294;1254;98817;-42
2023/07/15 15:07:38;;;;;;;2.80;2.40;;;;;;;31.91;34.78;98353.95;435378;1254;104182;-42
2023/07/15 15:17:45;;;;;;;2.80;2.60;;;;;;;31.83;34.83;98354.59;435179;1256;99650;-42
2023/07/15 15:27:52;;;;;;;4.00;2.70;;;;;;;31.81;35.03;98347.46;435295;1255;99239;-42
2023/07/15 15:48:06;;;;;;;4.50;2.90;;;;;;;31.82;34.82;98335.14;435305;1255;99227;-43
2023/07/15 15:58:13;;;;;;;4.20;3.00;;;;;;;31.81;34.96;98330.67;435463;1251;103867;-42
2023/07/15 16:08:21;;;;;;;4.80;2.70;;;;;;;31.56;34.57;98331.38;435333;1257;99319;-42
2023/07/15 16:18:28;;;;;;;3.80;2.70;;;;;;;31.49;34.86;98332.94;435331;1251;99222;-42
2023/07/15 16:28:35;;;;;;;4.90;2.80;;;;;;;31.32;34.78;98329.48;435248;1256;101847;-41
2023/07/15 16:38:42;;;;;;;3.00;2.80;;;;;;;31.23;35.22;98321.95;435814;1256;99215;-42
2023/07/15 16:48:48;;;;;;;5.90;3.20;;;;;;;31.09;35.48;98322.87;435226;1256;111499;-42
2023/07/15 16:58:55;;;;;;;8.50;3.70;;;;;;;30.86;35.69;98317.77;435926;1264;107480;-41
2023/07/15 17:09:01;;;;;;;3.30;3.00;;;;;;;30.69;36.12;98325.73;435363;1257;99250;-42
2023/07/15 17:19:08;;;;;;;3.20;2.90;;;;;;;30.47;36.12;98323.14;435246;1256;108204;-42
2023/07/15 17:29:15;;;;;;;5.00;3.60;;;;;;;30.23;36.86;98318.20;435224;1251;99239;-42
2023/07/15 17:39:22;;;;;;;3.60;3.30;;;;;;;29.98;37.36;98310.41;435229;1251;113239;-41
2023/07/15 17:49:29;;;;;;;10.40;6.40;;;;;;;29.75;37.78;98311.96;435051;1257;108914;-41
2023/07/15 17:59:37;;;;;;;9.50;3.70;;;;;;;29.44;38.50;98309.76;435263;1256;99314;-41
2023/07/15 18:09:44;;;;;;;9.50;5.90;;;;;;;29.12;39.16;98306.98;435331;1251;108517;-42
2023/07/15 18:19:51;;;;;;;17.90;9.70;;;;;;;28.71;39.78;98309.88;435236;1256;99246;-40
2023/07/15 18:29:59;;;;;;;11.10;7.30;;;;;;;28.26;41.00;98322.87;435452;1256;112163;-42
2023/07/15 18:50:10;;;;;;;8.20;5.80;;;;;;;27.34;42.86;98335.83;435498;1256;97979;-43
2023/07/15 19:00:20;;;;;;;7.90;7.10;;;;;;;26.96;43.83;98338.33;435374;1251;108723;-43
2023/07/15 19:10:28;;;;;;;10.20;8.00;;;;;;;26.38;45.38;98340.61;435385;1260;99250;-42
2023/07/15 19:20:35;;;;;;;8.70;7.80;;;;;;;25.95;46.29;98349.83;435198;1256;112212;-43
2023/07/15 19:30:43;;;;;;;19.40;8.20;;;;;;;25.61;46.86;98356.66;435234;1256;108491;-43
2023/07/15 19:40:51;;;;;;;11.00;7.40;;;;;;;25.46;47.07;98359.42;435278;1251;99311;-42
2023/07/15 19:50:55;;;;;;;8.70;6.50;;;;;;;25.62;47.55;98355.05;435232;1254;108143;-42
2023/07/15 20:01:03;;;;;;;11.80;8.60;;;;;;;25.67;47.72;98353.84;435178;1255;98098;-40
2023/07/15 20:11:10;;;;;;;15.00;8.80;;;;;;;25.60;47.81;98349.19;435438;1257;111824;-42
2023/07/15 20:21:16;;;;;;;20.10;10.70;;;;;;;25.53;48.04;98347.09;435323;1257;108137;-42
2023/07/15 20:31:23;;;;;;;11.60;8.30;;;;;;;25.39;48.53;98346.31;435253;1251;97979;-41
2023/07/15 20:41:29;;;;;;;10.10;8.30;;;;;;;25.20;49.11;98350.31;435385;1255;108079;-42
2023/07/15 20:51:34;;;;;;;;;;;;;;;24.97;49.71;98346.70;435210;1257;97945;-42
2023/07/15 21:01:42;;;;;;;12.10;9.60;;;;;;;24.74;50.40;98347.91;435413;1256;110863;-42
2023/07/15 21:11:49;;;;;;;11.20;9.30;;;;;;;24.51;51.45;98345.65;435311;1251;109226;-42
2023/07/15 21:21:56;;;;;;;13.90;8.90;;;;;;;24.32;52.03;98347.48;435333;1256;98007;-42
2023/07/15 21:42:09;;;;;;;11.20;9.30;;;;;;;23.86;53.26;98364.34;435305;1251;99211;-42
2023/07/15 21:52:16;;;;;;;11.50;9.80;;;;;;;23.56;54.30;98366.70;435458;1257;112904;-41
2023/07/15 22:02:23;;;;;;;13.50;10.40;;;;;;;23.30;55.47;98372.91;435116;1264;107191;-42
2023/07/15 22:12:29;;;;;;;;;;;;;;;23.13;55.98;98379.68;435253;1251;99221;-41
2023/07/15 22:22:37;;;;;;;12.60;10.40;;;;;;;22.95;56.39;98376.66;435201;1264;107527;-41
2023/07/15 22:32:44;;;;;;;14.80;9.80;;;;;;;22.81;57.19;98377.24;435258;1264;98694;-42
2023/07/15 22:42:51;;;;;;;13.40;10.30;;;;;;;22.60;58.13;98365.02;435347;1254;112734;-41
2023/07/15 22:52:59;;;;;;;14.90;10.50;;;;;;;22.42;58.64;98359.34;435247;1251;108314;-47
2023/07/15 23:03:05;;;;;;;;;;;;;;;22.33;59.15;98359.92;435357;1257;99217;-42
2023/07/15 23:13:11;;;;;;;12.00;9.60;;;;;;;22.19;59.49;98358.00;435205;1257;108618;-42
2023/07/15 23:23:18;;;;;;;14.10;10.90;;;;;;;22.00;60.15;98350.06;435311;1251;99239;-42
2023/07/15 23:33:25;;;;;;;14.30;10.70;;;;;;;21.86;60.46;98350.00;435379;1256;111657;-42
2023/07/15 23:43:32;;;;;;;14.80;10.90;;;;;;;21.72;61.32;98332.29;435335;1255;107918;-40
2023/07/15 23:53:39;;;;;;;15.60;11.10;;;;;;;21.62;61.38;98329.69;435275;1251;99240;-41
